Europa — PDZS — position and weather

sailwx.info

Track history (hours):
 
Tides and Currents Weather Stations Pressure Air Temp Water Temp Dewpoint Dewpoint Depression Visibility Wind Speed Wind Dir Waves Ship Positions

Europa (Netherlands)

60 meter steel-hulled bark; cruises worldwide. Rounded Cape Horn 2002. Accepts paying voyage crew (trainees) for short or long trip segments, including an annual voyage to Antarctica and nearby islands. For bookings see http://www.barkeuropa.com/ or phone +31 (0)10 281 0990, fax +31 (0)10 281 0991.

Ship's website: http://www.barkeuropa.com/

Last reported at 2017-Jan-20 00:00 UTC. Time now 2017-Jan-23 16:55 UTC.
Position S 59°36' W 062°36'.

Length 56 m; beam 8 m.

Type: Sailing vessel. MMSI: 246198000.

Wind from 060 at 14 knots

Barometer 1001.2 mb
Air temperature 3.3 ° C
Visibility: greater than 10.8 NM
Dewpoint 0.2 ° C
Water temperature 3.2 ° C

Date/timePositionNaut miles runAvg speedWind from/ knotsBaromVisibWave heightAir tempDewpointWater temp
2017-Jan-20 00:00S 59°36' W 062°36'46 7.6 060 / 141001.210.8 3.3 0.2 3.2
2017-Jan-19 18:00S 58°54' W 063°12'43 7.2 090 / 171000.5 5.4 4.0 0.5 5.4
2017-Jan-19 12:00S 58°12' W 063°30'48 7.9 100 / 20998.410.8 4.0 1.5 5.3
2017-Jan-19 06:00S 57°30' W 064°12'52 8.6 080 / 20996.5 5.4 4.5 4.5 5.6
2017-Jan-19 00:00S 56°42' W 064°48'26 4.3 060 / 20996.3 5.4 5.9 4.0 6.4
2017-Jan-18 18:00S 56°18' W 065°06'26 4.3 350 / 12998.510.8 7.0 2.6 6.4
2017-Jan-18 12:00S 55°54' W 065°24'52 4.3 310 / 6999.410.8 5.6 2.0 6.8
2017-Jan-18 00:00S 55°12' W 066°18'41 6.4 240 / 10995.110.8 5.7 2.6 9.0
2017-Jan-17 17:33S 54°55' W 067°23'7 6.9
2017-Jan-17 16:33S 54°54' W 067°35'7 7.3
2017-Jan-17 15:34S 54°54' W 067°48'7 6.8
2017-Jan-17 14:33S 54°52' W 067°59'7 7.0
2017-Jan-17 13:33S 54°50' W 068°11'4 4.1
2017-Jan-17 12:33S 54°48' W 068°17'0 0.0
2017-Jan-17 11:29S 54°48' W 068°17'1 0.6
2017-Jan-17 10:34S 54°49' W 068°18'0 0.0
2017-Jan-17 09:33S 54°49' W 068°18'0 0.0
2017-Jan-17 08:33S 54°49' W 068°18'0 0.0
2017-Jan-17 07:33S 54°49' W 068°18'0 0.0
2017-Jan-17 06:33S 54°49' W 068°18'0 0.0
2017-Jan-17 05:30S 54°49' W 068°18'0 0.0
2017-Jan-17 04:33S 54°49' W 068°18'0 0.0
2017-Jan-17 03:33S 54°49' W 068°18'0 0.0
2017-Jan-17 02:33S 54°49' W 068°18'0 0.0
2017-Jan-17 01:33S 54°49' W 068°18'0 0.0
2017-Jan-17 00:33S 54°49' W 068°18'0 0.0
2017-Jan-16 23:33S 54°49' W 068°18'0 0.0
2017-Jan-16 22:33S 54°49' W 068°18'0 0.0
2017-Jan-16 21:30S 54°49' W 068°18'0 0.0
2017-Jan-16 20:33S 54°49' W 068°18'0 0.0
2017-Jan-16 19:33S 54°49' W 068°18'0 0.0
2017-Jan-16 18:27S 54°49' W 068°18'0 0.0
2017-Jan-16 17:30S 54°49' W 068°18'0 0.0
2017-Jan-16 16:33S 54°49' W 068°18'0 0.0
2017-Jan-16 15:21S 54°49' W 068°18'0 0.0
2017-Jan-16 14:30S 54°49' W 068°18'0 0.0
2017-Jan-16 13:33S 54°49' W 068°18'0 0.0
2017-Jan-16 12:33S 54°49' W 068°18'0 0.0
2017-Jan-16 11:33S 54°49' W 068°18'0 0.0
2017-Jan-16 10:33S 54°49' W 068°18'0 0.0
2017-Jan-16 09:33S 54°49' W 068°18'0 0.0
2017-Jan-16 08:24S 54°49' W 068°18'0 0.0
2017-Jan-16 07:33S 54°49' W 068°18'0 0.0
2017-Jan-16 06:30S 54°49' W 068°18'0 0.0
2017-Jan-16 05:28S 54°49' W 068°18'0 0.0
2017-Jan-16 04:31S 54°49' W 068°18'0 0.0
2017-Jan-16 03:31S 54°49' W 068°18'0 0.0
2017-Jan-16 02:31S 54°49' W 068°18'0 0.0
2017-Jan-16 01:31S 54°49' W 068°18'0 0.0
2017-Jan-16 00:34S 54°49' W 068°18'0 0.0
2017-Jan-15 23:31S 54°49' W 068°18'0 0.0
2017-Jan-15 22:33S 54°49' W 068°18'0 0.0
2017-Jan-15 21:31S 54°49' W 068°18'0 0.0
2017-Jan-15 20:32S 54°49' W 068°18'0 0.0
2017-Jan-15 19:30S 54°49' W 068°18'0 0.0
2017-Jan-15 18:32S 54°49' W 068°18'0 0.0
2017-Jan-15 17:32S 54°49' W 068°18'0 0.0
2017-Jan-15 16:32S 54°49' W 068°18'0 0.0
2017-Jan-15 15:33S 54°49' W 068°18'1 1.1
2017-Jan-15 14:34S 54°49' W 068°17'0 0.0
2017-Jan-15 13:31S 54°49' W 068°17'0 0.0
2017-Jan-15 12:22S 54°49' W 068°17'0 0.0
2017-Jan-15 11:27S 54°49' W 068°17'0 0.0
2017-Jan-15 10:33S 54°49' W 068°17'0 0.1
2017-Jan-15 09:33S 54°49' W 068°17'0 0.0
2017-Jan-15 08:33S 54°49' W 068°17'0 0.0
2017-Jan-15 07:33S 54°49' W 068°17'0 0.0
2017-Jan-15 06:30S 54°49' W 068°17'0 0.0
2017-Jan-15 05:33S 54°49' W 068°17'0 0.0
2017-Jan-15 04:33S 54°49' W 068°17'0 0.0
2017-Jan-15 03:31S 54°49' W 068°17'0 0.0
2017-Jan-15 02:28S 54°49' W 068°17'0 0.0
2017-Jan-15 01:31S 54°49' W 068°17'0 0.0
2017-Jan-15 00:28S 54°49' W 068°17'0 0.0
2017-Jan-14 23:33S 54°49' W 068°17'0 0.0
2017-Jan-14 22:33S 54°49' W 068°17'0 0.0
2017-Jan-14 21:31S 54°49' W 068°17'0 0.0
2017-Jan-14 20:32S 54°49' W 068°17'0 0.0
2017-Jan-14 19:32S 54°49' W 068°17'0 0.0
2017-Jan-14 18:29S 54°49' W 068°17'0 0.1
2017-Jan-14 17:32S 54°49' W 068°17'0 0.0
2017-Jan-14 16:32S 54°49' W 068°17'0 0.0
2017-Jan-14 15:32S 54°49' W 068°17'0 0.0
2017-Jan-14 14:32S 54°49' W 068°17'0 0.0
2017-Jan-14 13:29S 54°49' W 068°17'0 0.0
2017-Jan-14 12:32S 54°49' W 068°17'0 0.0
2017-Jan-14 11:32S 54°49' W 068°17'0 0.0
2017-Jan-14 10:32S 54°49' W 068°17'0 0.0
2017-Jan-14 09:29S 54°49' W 068°17'0 0.0
2017-Jan-14 08:32S 54°49' W 068°17'0 0.0
2017-Jan-14 07:32S 54°49' W 068°17'0 0.0
2017-Jan-14 06:32S 54°49' W 068°17'0 0.0
2017-Jan-14 05:31S 54°49' W 068°17'0 0.0
2017-Jan-14 04:32S 54°49' W 068°17'0 0.0
2017-Jan-14 03:32S 54°49' W 068°17'0 0.0
2017-Jan-13 23:31S 54°49' W 068°17'0 0.0
2017-Jan-13 22:31S 54°49' W 068°17'0 0.0
2017-Jan-13 21:31S 54°49' W 068°17'0 0.0
2017-Jan-13 20:32S 54°49' W 068°17'0 0.0
2017-Jan-13 19:32S 54°49' W 068°17'0 0.0
2017-Jan-13 18:32S 54°49' W 068°17'0 0.1
2017-Jan-13 17:32S 54°49' W 068°17'0 0.1
2017-Jan-13 16:34S 54°49' W 068°17'5 4.5
2017-Jan-13 15:33S 54°50' W 068°09'6 6.1
2017-Jan-13 14:33S 54°52' W 067°59'7 6.6
2017-Jan-13 13:33S 54°54' W 067°48'6 6.3
2017-Jan-13 12:33S 54°54' W 067°37'6 5.4
2017-Jan-13 11:33S 54°55' W 067°28'5 5.0
2017-Jan-13 10:33S 54°54' W 067°19'1 0.4
2017-Jan-13 07:16S 54°53' W 067°19'0 0.0
2017-Jan-12 15:25S 54°53' W 067°19'0 0.0
2017-Jan-12 14:30S 54°53' W 067°19'1 1.3
2017-Jan-12 13:33S 54°54' W 067°18'39 2.9
2017-Jan-12 00:00S 55°18' W 066°24'277 6.6 250 / 15994.4 5.4 8.3 5.7 9.0
2017-Jan-10 06:00S 59°54' W 065°42'   310 / 8976.9 5.4 3.0-2.1 2.8
Track history (hours):
 
Tides and Currents Weather Stations Pressure Air Temp Water Temp Dewpoint Dewpoint Depression Visibility Wind Speed Wind Dir Waves Ship Positions

Europa (Netherlands)

60 meter steel-hulled bark; cruises worldwide. Rounded Cape Horn 2002. Accepts paying voyage crew (trainees) for short or long trip segments, including an annual voyage to Antarctica and nearby islands. For bookings see http://www.barkeuropa.com/ or phone +31 (0)10 281 0990, fax +31 (0)10 281 0991.

Ship's website: http://www.barkeuropa.com/

Last reported at 2017-Jan-20 00:00 UTC. Time now 2017-Jan-23 16:55 UTC.
Position S 59°36' W 062°36'.

Length 56 m; beam 8 m.

Type: Sailing vessel. MMSI: 246198000.

Wind from 060 at 14 knots

Barometer 1001.2 mb
Air temperature 3.3 ° C
Visibility: greater than 10.8 NM
Dewpoint 0.2 ° C
Water temperature 3.2 ° C

Date/timePositionNaut miles runAvg speedWind from/ knotsBaromVisibWave heightAir tempDewpointWater temp
2017-Jan-20 00:00S 59°36' W 062°36'46 7.6 060 / 141001.210.8 3.3 0.2 3.2
2017-Jan-19 18:00S 58°54' W 063°12'43 7.2 090 / 171000.5 5.4 4.0 0.5 5.4
2017-Jan-19 12:00S 58°12' W 063°30'48 7.9 100 / 20998.410.8 4.0 1.5 5.3
2017-Jan-19 06:00S 57°30' W 064°12'52 8.6 080 / 20996.5 5.4 4.5 4.5 5.6
2017-Jan-19 00:00S 56°42' W 064°48'26 4.3 060 / 20996.3 5.4 5.9 4.0 6.4
2017-Jan-18 18:00S 56°18' W 065°06'26 4.3 350 / 12998.510.8 7.0 2.6 6.4
2017-Jan-18 12:00S 55°54' W 065°24'52 4.3 310 / 6999.410.8 5.6 2.0 6.8
2017-Jan-18 00:00S 55°12' W 066°18'41 6.4 240 / 10995.110.8 5.7 2.6 9.0
2017-Jan-17 17:33S 54°55' W 067°23'7 6.9
2017-Jan-17 16:33S 54°54' W 067°35'7 7.3
2017-Jan-17 15:34S 54°54' W 067°48'7 6.8
2017-Jan-17 14:33S 54°52' W 067°59'7 7.0
2017-Jan-17 13:33S 54°50' W 068°11'4 4.1
2017-Jan-17 12:33S 54°48' W 068°17'0 0.0
2017-Jan-17 11:29S 54°48' W 068°17'1 0.6
2017-Jan-17 10:34S 54°49' W 068°18'0 0.0
2017-Jan-17 09:33S 54°49' W 068°18'0 0.0
2017-Jan-17 08:33S 54°49' W 068°18'0 0.0
2017-Jan-17 07:33S 54°49' W 068°18'0 0.0
2017-Jan-17 06:33S 54°49' W 068°18'0 0.0
2017-Jan-17 05:30S 54°49' W 068°18'0 0.0
2017-Jan-17 04:33S 54°49' W 068°18'0 0.0
2017-Jan-17 03:33S 54°49' W 068°18'0 0.0
2017-Jan-17 02:33S 54°49' W 068°18'0 0.0
2017-Jan-17 01:33S 54°49' W 068°18'0 0.0
2017-Jan-17 00:33S 54°49' W 068°18'0 0.0
2017-Jan-16 23:33S 54°49' W 068°18'0 0.0
2017-Jan-16 22:33S 54°49' W 068°18'0 0.0
2017-Jan-16 21:30S 54°49' W 068°18'0 0.0
2017-Jan-16 20:33S 54°49' W 068°18'0 0.0
2017-Jan-16 19:33S 54°49' W 068°18'0 0.0
2017-Jan-16 18:27S 54°49' W 068°18'0 0.0
2017-Jan-16 17:30S 54°49' W 068°18'0 0.0
2017-Jan-16 16:33S 54°49' W 068°18'0 0.0
2017-Jan-16 15:21S 54°49' W 068°18'0 0.0
2017-Jan-16 14:30S 54°49' W 068°18'0 0.0
2017-Jan-16 13:33S 54°49' W 068°18'0 0.0
2017-Jan-16 12:33S 54°49' W 068°18'0 0.0
2017-Jan-16 11:33S 54°49' W 068°18'0 0.0
2017-Jan-16 10:33S 54°49' W 068°18'0 0.0
2017-Jan-16 09:33S 54°49' W 068°18'0 0.0
2017-Jan-16 08:24S 54°49' W 068°18'0 0.0
2017-Jan-16 07:33S 54°49' W 068°18'0 0.0
2017-Jan-16 06:30S 54°49' W 068°18'0 0.0
2017-Jan-16 05:28S 54°49' W 068°18'0 0.0
2017-Jan-16 04:31S 54°49' W 068°18'0 0.0
2017-Jan-16 03:31S 54°49' W 068°18'0 0.0
2017-Jan-16 02:31S 54°49' W 068°18'0 0.0
2017-Jan-16 01:31S 54°49' W 068°18'0 0.0
2017-Jan-16 00:34S 54°49' W 068°18'0 0.0
2017-Jan-15 23:31S 54°49' W 068°18'0 0.0
2017-Jan-15 22:33S 54°49' W 068°18'0 0.0
2017-Jan-15 21:31S 54°49' W 068°18'0 0.0
2017-Jan-15 20:32S 54°49' W 068°18'0 0.0
2017-Jan-15 19:30S 54°49' W 068°18'0 0.0
2017-Jan-15 18:32S 54°49' W 068°18'0 0.0
2017-Jan-15 17:32S 54°49' W 068°18'0 0.0
2017-Jan-15 16:32S 54°49' W 068°18'0 0.0
2017-Jan-15 15:33S 54°49' W 068°18'1 1.1
2017-Jan-15 14:34S 54°49' W 068°17'0 0.0
2017-Jan-15 13:31S 54°49' W 068°17'0 0.0
2017-Jan-15 12:22S 54°49' W 068°17'0 0.0
2017-Jan-15 11:27S 54°49' W 068°17'0 0.0
2017-Jan-15 10:33S 54°49' W 068°17'0 0.1
2017-Jan-15 09:33S 54°49' W 068°17'0 0.0
2017-Jan-15 08:33S 54°49' W 068°17'0 0.0
2017-Jan-15 07:33S 54°49' W 068°17'0 0.0
2017-Jan-15 06:30S 54°49' W 068°17'0 0.0
2017-Jan-15 05:33S 54°49' W 068°17'0 0.0
2017-Jan-15 04:33S 54°49' W 068°17'0 0.0
2017-Jan-15 03:31S 54°49' W 068°17'0 0.0
2017-Jan-15 02:28S 54°49' W 068°17'0 0.0
2017-Jan-15 01:31S 54°49' W 068°17'0 0.0
2017-Jan-15 00:28S 54°49' W 068°17'0 0.0
2017-Jan-14 23:33S 54°49' W 068°17'0 0.0
2017-Jan-14 22:33S 54°49' W 068°17'0 0.0
2017-Jan-14 21:31S 54°49' W 068°17'0 0.0
2017-Jan-14 20:32S 54°49' W 068°17'0 0.0
2017-Jan-14 19:32S 54°49' W 068°17'0 0.0
2017-Jan-14 18:29S 54°49' W 068°17'0 0.1
2017-Jan-14 17:32S 54°49' W 068°17'0 0.0
2017-Jan-14 16:32S 54°49' W 068°17'0 0.0
2017-Jan-14 15:32S 54°49' W 068°17'0 0.0
2017-Jan-14 14:32S 54°49' W 068°17'0 0.0
2017-Jan-14 13:29S 54°49' W 068°17'0 0.0
2017-Jan-14 12:32S 54°49' W 068°17'0 0.0
2017-Jan-14 11:32S 54°49' W 068°17'0 0.0
2017-Jan-14 10:32S 54°49' W 068°17'0 0.0
2017-Jan-14 09:29S 54°49' W 068°17'0 0.0
2017-Jan-14 08:32S 54°49' W 068°17'0 0.0
2017-Jan-14 07:32S 54°49' W 068°17'0 0.0
2017-Jan-14 06:32S 54°49' W 068°17'0 0.0
2017-Jan-14 05:31S 54°49' W 068°17'0 0.0
2017-Jan-14 04:32S 54°49' W 068°17'0 0.0
2017-Jan-14 03:32S 54°49' W 068°17'0 0.0
2017-Jan-13 23:31S 54°49' W 068°17'0 0.0
2017-Jan-13 22:31S 54°49' W 068°17'0 0.0
2017-Jan-13 21:31S 54°49' W 068°17'0 0.0
2017-Jan-13 20:32S 54°49' W 068°17'0 0.0
2017-Jan-13 19:32S 54°49' W 068°17'0 0.0
2017-Jan-13 18:32S 54°49' W 068°17'0 0.1
2017-Jan-13 17:32S 54°49' W 068°17'0 0.1
2017-Jan-13 16:34S 54°49' W 068°17'5 4.5
2017-Jan-13 15:33S 54°50' W 068°09'6 6.1
2017-Jan-13 14:33S 54°52' W 067°59'7 6.6
2017-Jan-13 13:33S 54°54' W 067°48'6 6.3
2017-Jan-13 12:33S 54°54' W 067°37'6 5.4
2017-Jan-13 11:33S 54°55' W 067°28'5 5.0
2017-Jan-13 10:33S 54°54' W 067°19'1 0.4
2017-Jan-13 07:16S 54°53' W 067°19'0 0.0
2017-Jan-12 15:25S 54°53' W 067°19'0 0.0
2017-Jan-12 14:30S 54°53' W 067°19'1 1.3
2017-Jan-12 13:33S 54°54' W 067°18'39 2.9
2017-Jan-12 00:00S 55°18' W 066°24'277 6.6 250 / 15994.4 5.4 8.3 5.7 9.0
2017-Jan-10 06:00S 59°54' W 065°42'   310 / 8976.9 5.4 3.0-2.1 2.8

Dump ship's entire track history